Time;durP1;ratioP1;P1;durP2;ratioP2;P2;SDS_P1;SDS_P2;PMS_P1;PMS_P2;Temp;Humidity;BMP_temperature;BMP_pressure;BME280_temperature;BME280_humidity;BME280_pressure;Samples;Min_cycle;Max_cycle;Signal;HPM_P1;HPM_P2
2023/04/26 00:04:32;;;;;;;;;;;;;;;4.11;69.51563;102048.2;;;;-72
2023/04/26 00:09:29;;;;;;;;;;;;;;;4.07;69.68652;102053.9;;;;-71
2023/04/26 00:14:29;;;;;;;;;;;;;;;4.02;69.66699;102048.8;;;;-72
2023/04/26 00:18:56;;;;;;;2.5;0.9;;;;;;;;;;;;;-72
2023/04/26 00:19:29;;;;;;;;;;;;;;;4;69.57617;102053.2;;;;-73
2023/04/26 00:24:29;;;;;;;;;;;;;;;3.98;69.6377;102051.2;;;;-72
2023/04/26 00:29:31;;;;;;;;;;;;;;;4.01;69.59766;102045.5;;;;-71
2023/04/26 00:34:34;;;;;;;;;;;;;;;4.07;69.7832;102043.1;;;;-73
2023/04/26 00:39:31;;;;;;;;;;;;;;;4.01;69.84961;102046.3;;;;-71
2023/04/26 00:44:29;;;;;;;;;;;;;;;4.04;69.85547;102039.7;;;;-72
2023/04/26 00:48:53;;;;;;;6.2;1;;;;;;;;;;;;;-72
2023/04/26 00:49:29;;;;;;;;;;;;;;;3.97;69.77832;102042.3;;;;-72
2023/04/26 00:54:32;;;;;;;;;;;;;;;3.95;69.7207;102034.5;;;;-72
2023/04/26 00:59:29;;;;;;;;;;;;;;;3.85;69.93359;102034.4;;;;-72
2023/04/26 01:04:29;;;;;;;;;;;;;;;3.79;70.02148;102033.1;;;;-71
2023/04/26 01:09:29;;;;;;;;;;;;;;;3.76;70.11523;102029.8;;;;-72
2023/04/26 01:14:29;;;;;;;;;;;;;;;3.69;69.89453;102034;;;;-75
2023/04/26 01:18:58;;;;;;;1.5;0.8;;;;;;;;;;;;;-73
2023/04/26 01:19:29;;;;;;;;;;;;;;;3.59;69.96875;102039.5;;;;-71
2023/04/26 01:24:29;;;;;;;;;;;;;;;3.49;70.07129;102038.3;;;;-75
2023/04/26 01:29:29;;;;;;;;;;;;;;;3.45;70.11914;102039.2;;;;-73
2023/04/26 01:34:29;;;;;;;;;;;;;;;3.38;70.22754;102040.3;;;;-73
2023/04/26 01:39:29;;;;;;;;;;;;;;;3.37;70.0498;102042.2;;;;-72
2023/04/26 01:44:29;;;;;;;;;;;;;;;3.27;70.16504;102041.9;;;;-73
2023/04/26 01:48:56;;;;;;;4.3;0.8;;;;;;;;;;;;;-72
2023/04/26 01:49:29;;;;;;;;;;;;;;;3.2;70.1123;102031.6;;;;-72
2023/04/26 01:54:29;;;;;;;;;;;;;;;3.16;69.93066;102026.1;;;;-72
2023/04/26 01:59:29;;;;;;;;;;;;;;;3.1;70.10645;102026.9;;;;-72
2023/04/26 02:04:29;;;;;;;;;;;;;;;3.06;70.24121;102034.6;;;;-72
2023/04/26 02:09:29;;;;;;;;;;;;;;;2.99;70.42578;102036.8;;;;-73
2023/04/26 02:14:29;;;;;;;;;;;;;;;2.99;70.39258;102034.6;;;;-72
2023/04/26 02:18:55;;;;;;;2.9;0.9;;;;;;;;;;;;;-73
2023/04/26 02:19:29;;;;;;;;;;;;;;;3.02;69.90625;102033;;;;-73
2023/04/26 02:24:29;;;;;;;;;;;;;;;2.97;70.49902;102031.6;;;;-71
2023/04/26 02:29:29;;;;;;;;;;;;;;;3.03;70.32422;102033.8;;;;-72
2023/04/26 02:34:29;;;;;;;;;;;;;;;3.09;70.13672;102032.9;;;;-74
2023/04/26 02:39:29;;;;;;;;;;;;;;;3.08;69.96094;102040.2;;;;-69
2023/04/26 02:44:31;;;;;;;;;;;;;;;3.1;70.06152;102040.6;;;;-70
2023/04/26 02:48:55;;;;;;;1.4;0.7;;;;;;;;;;;;;-71
2023/04/26 02:49:29;;;;;;;;;;;;;;;3.15;70.00488;102040.5;;;;-69
2023/04/26 02:54:29;;;;;;;;;;;;;;;3.11;70.0957;102032.3;;;;-69
2023/04/26 02:59:29;;;;;;;;;;;;;;;3.14;70.05664;102024.2;;;;-68
2023/04/26 03:04:29;;;;;;;;;;;;;;;3.18;70.06445;102022.1;;;;-69
2023/04/26 03:09:29;;;;;;;;;;;;;;;3.13;69.92578;102016;;;;-69
2023/04/26 03:14:29;;;;;;;;;;;;;;;3.09;69.96191;102014.9;;;;-69
2023/04/26 03:18:55;;;;;;;2.5;0.9;;;;;;;;;;;;;-69
2023/04/26 03:19:29;;;;;;;;;;;;;;;3.05;70.25098;102015.5;;;;-73
2023/04/26 03:24:29;;;;;;;;;;;;;;;3.02;70.55176;102021;;;;-69
2023/04/26 03:29:29;;;;;;;;;;;;;;;3.01;70.04688;102012.5;;;;-68
2023/04/26 03:34:29;;;;;;;;;;;;;;;2.96;69.99609;102011.1;;;;-70
2023/04/26 03:39:29;;;;;;;;;;;;;;;2.89;69.96191;102007.5;;;;-70
2023/04/26 03:44:29;;;;;;;;;;;;;;;2.91;70.00879;102007.7;;;;-69
2023/04/26 03:49:00;;;;;;;3.9;0.9;;;;;;;;;;;;;-69
2023/04/26 03:49:29;;;;;;;;;;;;;;;2.85;69.94531;102005.9;;;;-70
2023/04/26 03:54:29;;;;;;;;;;;;;;;2.82;70.21289;102005.1;;;;-69
2023/04/26 03:59:29;;;;;;;;;;;;;;;2.85;69.96582;102016.3;;;;-68
2023/04/26 04:04:29;;;;;;;;;;;;;;;2.88;70.15723;102015;;;;-70
2023/04/26 04:09:29;;;;;;;;;;;;;;;2.95;70.16699;102011.5;;;;-68
2023/04/26 04:14:29;;;;;;;;;;;;;;;2.96;70.12695;102011.6;;;;-70
2023/04/26 04:18:56;;;;;;;2.2;0.7;;;;;;;;;;;;;-69
2023/04/26 04:19:29;;;;;;;;;;;;;;;2.96;70.05078;102013.9;;;;-72
2023/04/26 04:24:29;;;;;;;;;;;;;;;3.05;69.88965;102013.3;;;;-70
2023/04/26 04:29:29;;;;;;;;;;;;;;;3.1;69.96484;102017.8;;;;-69
2023/04/26 04:34:29;;;;;;;;;;;;;;;3.16;69.81055;102020.6;;;;-70
2023/04/26 04:39:29;;;;;;;;;;;;;;;3.2;69.9375;102021.7;;;;-70
2023/04/26 04:44:30;;;;;;;;;;;;;;;3.26;70;102015.1;;;;-70
2023/04/26 04:48:56;;;;;;;1.7;0.7;;;;;;;;;;;;;-69
2023/04/26 04:49:29;;;;;;;;;;;;;;;3.3;69.67969;102010;;;;-69
2023/04/26 04:54:30;;;;;;;;;;;;;;;3.37;69.62598;102019.3;;;;-69
2023/04/26 04:59:29;;;;;;;;;;;;;;;3.39;69.79102;102017.3;;;;-71
2023/04/26 05:04:30;;;;;;;;;;;;;;;3.46;69.60645;102018.3;;;;-69
2023/04/26 05:09:29;;;;;;;;;;;;;;;3.5;69.64648;102020.5;;;;-69
2023/04/26 05:14:29;;;;;;;;;;;;;;;3.6;69.72949;102026.5;;;;-69
2023/04/26 05:18:57;;;;;;;2;0.9;;;;;;;;;;;;;-71
2023/04/26 05:19:29;;;;;;;;;;;;;;;3.68;69.54492;102028;;;;-70
2023/04/26 05:24:29;;;;;;;;;;;;;;;3.81;69.27051;102029.8;;;;-70
2023/04/26 05:29:31;;;;;;;;;;;;;;;3.92;69.22266;102027;;;;-70
2023/04/26 05:34:29;;;;;;;;;;;;;;;4.05;69.41992;102030.7;;;;-68
2023/04/26 05:39:29;;;;;;;;;;;;;;;4.14;69.05176;102026.6;;;;-70
2023/04/26 05:44:29;;;;;;;;;;;;;;;4.28;69.17188;102028.9;;;;-70
2023/04/26 05:48:57;;;;;;;2;0.8;;;;;;;;;;;;;-70
2023/04/26 05:49:29;;;;;;;;;;;;;;;4.43;69.14063;102031.1;;;;-70
2023/04/26 05:54:29;;;;;;;;;;;;;;;4.64;68.91309;102031.2;;;;-70
2023/04/26 05:59:31;;;;;;;;;;;;;;;4.88;68.81738;102031.3;;;;-69
2023/04/26 06:04:29;;;;;;;;;;;;;;;5.29;69.55176;102033;;;;-72
2023/04/26 06:09:29;;;;;;;;;;;;;;;5.55;67.55371;102039.5;;;;-69
2023/04/26 06:14:29;;;;;;;;;;;;;;;5.74;67.29883;102042.2;;;;-69
2023/04/26 06:18:57;;;;;;;4.9;0.9;;;;;;;;;;;;;-70
2023/04/26 06:19:29;;;;;;;;;;;;;;;5.85;67.17188;102049.1;;;;-70
2023/04/26 06:24:29;;;;;;;;;;;;;;;6.01;66.72461;102051.9;;;;-69
2023/04/26 06:29:29;;;;;;;;;;;;;;;6.12;66.63184;102051.7;;;;-69
2023/04/26 06:34:29;;;;;;;;;;;;;;;6.22;66.92188;102057.7;;;;-69
2023/04/26 06:39:29;;;;;;;;;;;;;;;6.27;67.01855;102062.7;;;;-69
2023/04/26 06:44:29;;;;;;;;;;;;;;;6.31;67.36523;102059.1;;;;-67
2023/04/26 06:48:59;;;;;;;2.1;1;;;;;;;;;;;;;-70
2023/04/26 06:49:29;;;;;;;;;;;;;;;6.35;67.40332;102062.4;;;;-69
2023/04/26 06:54:30;;;;;;;;;;;;;;;6.41;67.66699;102064.3;;;;-69
2023/04/26 06:59:29;;;;;;;;;;;;;;;6.47;67.73145;102067;;;;-69
2023/04/26 07:04:30;;;;;;;;;;;;;;;6.61;67.96191;102066.5;;;;-69
2023/04/26 07:09:29;;;;;;;;;;;;;;;6.73;68.47559;102064.2;;;;-69
2023/04/26 07:14:29;;;;;;;;;;;;;;;6.86;68.05762;102067.1;;;;-69
2023/04/26 07:18:59;;;;;;;2.6;1;;;;;;;;;;;;;-68
2023/04/26 07:19:29;;;;;;;;;;;;;;;6.96;66.87207;102064.9;;;;-69
2023/04/26 07:24:29;;;;;;;;;;;;;;;7.07;66.45801;102068.1;;;;-69
2023/04/26 07:29:31;;;;;;;;;;;;;;;7.3;66.92285;102060.4;;;;-70
2023/04/26 07:34:31;;;;;;;;;;;;;;;7.71;66.30371;102059.1;;;;-71
2023/04/26 07:39:29;;;;;;;;;;;;;;;8.02;65.64258;102065.6;;;;-73
2023/04/26 07:44:29;;;;;;;;;;;;;;;8.29;65.34082;102066.8;;;;-72
2023/04/26 07:49:00;;;;;;;2.8;1.3;;;;;;;;;;;;;-72
2023/04/26 07:49:29;;;;;;;;;;;;;;;8.4;64.91504;102068.1;;;;-73
2023/04/26 07:54:29;;;;;;;;;;;;;;;8.48;64.89355;102075.1;;;;-73
2023/04/26 07:59:29;;;;;;;;;;;;;;;8.51;65.12109;102076.7;;;;-73
2023/04/26 08:04:33;;;;;;;;;;;;;;;8.57;65.07227;102080.4;;;;-73
2023/04/26 08:09:29;;;;;;;;;;;;;;;8.69;64.95801;102078.5;;;;-72
2023/04/26 08:14:30;;;;;;;;;;;;;;;8.9;64.51465;102073.1;;;;-73
2023/04/26 08:19:02;;;;;;;3.2;1.3;;;;;;;;;;;;;-73
2023/04/26 08:19:31;;;;;;;;;;;;;;;9.11;64.1582;102079.5;;;;-74
2023/04/26 08:24:29;;;;;;;;;;;;;;;9.35;63.63867;102074.2;;;;-73
2023/04/26 08:29:30;;;;;;;;;;;;;;;9.48;63.39258;102071.6;;;;-72
2023/04/26 08:34:29;;;;;;;;;;;;;;;9.46;62.84473;102077;;;;-69
2023/04/26 08:39:29;;;;;;;;;;;;;;;9.33;62.91504;102076.4;;;;-69
2023/04/26 09:07:06;;;;;;;;;;;;;;;9.02;64.69824;102087.6;;;;-71
2023/04/26 09:12:03;;;;;;;;;;;;;;;9.07;64.53809;102086.9;;;;-70
2023/04/26 09:17:03;;;;;;;;;;;;;;;9.19;64.65625;102082.9;;;;-69
2023/04/26 09:19:03;;;;;;;4.5;1.4;;;;;;;;;;;;;-68
2023/04/26 09:22:03;;;;;;;;;;;;;;;9.53;65.35059;102076.5;;;;-70
2023/04/26 09:27:08;;;;;;;;;;;;;;;10.27;64.09375;102076.1;;;;-70
2023/04/26 09:32:03;;;;;;;;;;;;;;;11.17;63.40527;102073.8;;;;-69
2023/04/26 09:37:03;;;;;;;;;;;;;;;12.17;61.47266;102078.8;;;;-68
2023/04/26 09:42:03;;;;;;;;;;;;;;;12.82;59.94043;102081.2;;;;-70
2023/04/26 09:47:08;;;;;;;;;;;;;;;13.16;59.09082;102082.4;;;;-68
2023/04/26 09:49:07;;;;;;;6.2;1.2;;;;;;;;;;;;;-68
2023/04/26 09:52:07;;;;;;;;;;;;;;;13.28;58.6377;102086;;;;-71
2023/04/26 09:57:06;;;;;;;;;;;;;;;13.48;58.42871;102076.5;;;;-69
2023/04/26 10:02:03;;;;;;;;;;;;;;;13.79;58.24512;102072.8;;;;-73
2023/04/26 10:07:03;;;;;;;;;;;;;;;14.1;57.15137;102067.5;;;;-72
2023/04/26 10:12:05;;;;;;;;;;;;;;;14.2;57.26563;102061.6;;;;-74
2023/04/26 10:17:05;;;;;;;;;;;;;;;14.54;57.32129;102062.7;;;;-73
2023/04/26 10:19:06;;;;;;;2.3;1;;;;;;;;;;;;;-73
2023/04/26 10:22:07;;;;;;;;;;;;;;;15.07;56.29785;102057;;;;-73
2023/04/26 10:27:04;;;;;;;;;;;;;;;15.52;55.13867;102062;;;;-74
2023/04/26 10:32:15;;;;;;;;;;;;;;;15.35;54.9043;102062;;;;-72
2023/04/26 10:37:17;;;;;;;;;;;;;;;14.8;55.3418;102059.7;;;;-72
2023/04/26 10:42:16;;;;;;;;;;;;;;;14.25;55.64355;102064.1;;;;-73
2023/04/26 10:47:03;;;;;;;;;;;;;;;13.91;56.62207;102067.9;;;;-72
2023/04/26 10:49:21;;;;;;;2.7;1.1;;;;;;;;;;;;;-73
2023/04/26 10:52:18;;;;;;;;;;;;;;;13.76;57.1875;102070.7;;;;-72
2023/04/26 10:57:03;;;;;;;;;;;;;;;13.88;57.7959;102063.3;;;;-73
2023/04/26 11:02:03;;;;;;;;;;;;;;;14.53;60.19824;102059.2;;;;-74
2023/04/26 11:07:06;;;;;;;;;;;;;;;14.94;58.09375;102059.2;;;;-73
2023/04/26 11:12:04;;;;;;;;;;;;;;;14.85;58.14941;102058;;;;-73
2023/04/26 11:17:05;;;;;;;;;;;;;;;14.59;56.59766;102064.6;;;;-72
2023/04/26 11:19:12;;;;;;;2.5;1.2;;;;;;;;;;;;;-72
2023/04/26 11:22:03;;;;;;;;;;;;;;;14.3;55.87402;102052.5;;;;-73
2023/04/26 11:27:03;;;;;;;;;;;;;;;14.03;55.73828;102047.8;;;;-72
2023/04/26 11:32:03;;;;;;;;;;;;;;;13.86;57.17773;102043.6;;;;-73
2023/04/26 11:37:04;;;;;;;;;;;;;;;13.78;57.32324;102045.2;;;;-73
2023/04/26 11:42:07;;;;;;;;;;;;;;;13.69;57.0752;102049.8;;;;-71
2023/04/26 11:47:04;;;;;;;;;;;;;;;13.65;57.40723;102048.9;;;;-72
2023/04/26 11:49:13;;;;;;;3.6;1.1;;;;;;;;;;;;;-72
2023/04/26 11:52:04;;;;;;;;;;;;;;;13.79;57.31445;102043.1;;;;-74
2023/04/26 11:57:03;;;;;;;;;;;;;;;14.15;58.32617;102047;;;;-73
2023/04/26 12:02:08;;;;;;;;;;;;;;;14.77;59.43164;102042.8;;;;-73
2023/04/26 12:07:03;;;;;;;;;;;;;;;15.48;57.9502;102040.9;;;;-73
2023/04/26 12:12:05;;;;;;;;;;;;;;;15.85;56.13965;102034.5;;;;-72
2023/04/26 12:17:06;;;;;;;;;;;;;;;16.15;59.0332;102048.6;;;;-74
2023/04/26 12:19:16;;;;;;;3.5;1.2;;;;;;;;;;;;;-74
2023/04/26 12:22:03;;;;;;;;;;;;;;;15.74;55.76367;102046.2;;;;-72
2023/04/26 12:27:04;;;;;;;;;;;;;;;15.36;56.64063;102050.2;;;;-73
2023/04/26 12:32:03;;;;;;;;;;;;;;;15.13;56.125;102055.8;;;;-74
2023/04/26 12:37:03;;;;;;;;;;;;;;;14.9;55.92871;102060;;;;-73
2023/04/26 12:42:03;;;;;;;;;;;;;;;14.75;55.7627;102064.9;;;;-73
2023/04/26 12:47:03;;;;;;;;;;;;;;;14.69;55.81152;102066.9;;;;-73
2023/04/26 12:49:19;;;;;;;2.8;1.1;;;;;;;;;;;;;-72
2023/04/26 12:52:03;;;;;;;;;;;;;;;14.76;56.29199;102065;;;;-73
2023/04/26 12:57:03;;;;;;;;;;;;;;;14.83;55.93066;102067.6;;;;-71
2023/04/26 13:02:03;;;;;;;;;;;;;;;14.95;56.68945;102062.8;;;;-73
2023/04/26 13:07:03;;;;;;;;;;;;;;;15.15;57.36816;102066.4;;;;-73
2023/04/26 13:12:03;;;;;;;;;;;;;;;15.71;58.03809;102058.6;;;;-73
2023/04/26 13:17:04;;;;;;;;;;;;;;;16.23;57.8916;102054.9;;;;-73
2023/04/26 13:19:20;;;;;;;3.1;1.2;;;;;;;;;;;;;-76
2023/04/26 13:22:08;;;;;;;;;;;;;;;16.6;57.95117;102055.7;;;;-70
2023/04/26 13:27:03;;;;;;;;;;;;;;;17.03;58.03027;102058.3;;;;-69
2023/04/26 13:32:03;;;;;;;;;;;;;;;17.29;57.1377;102063.4;;;;-71
2023/04/26 13:37:03;;;;;;;;;;;;;;;17.72;56.45508;102063.8;;;;-70
2023/04/26 13:42:04;;;;;;;;;;;;;;;18;56.54883;102057.6;;;;-69
2023/04/26 13:47:03;;;;;;;;;;;;;;;18.25;55.93457;102069.9;;;;-69
2023/04/26 13:49:26;;;;;;;3.1;1;;;;;;;;;;;;;-69
2023/04/26 13:52:03;;;;;;;;;;;;;;;18.35;54.52832;102072.6;;;;-70
2023/04/26 13:57:03;;;;;;;;;;;;;;;18.64;55.62012;102066.3;;;;-69
2023/04/26 14:02:03;;;;;;;;;;;;;;;18.95;56.19238;102064.5;;;;-70
2023/04/26 14:07:03;;;;;;;;;;;;;;;19.21;57.05469;102058.4;;;;-70
2023/04/26 14:12:06;;;;;;;;;;;;;;;19.35;55.56152;102061.2;;;;-70
2023/04/26 14:17:03;;;;;;;;;;;;;;;19.48;55.16602;102059.9;;;;-68
2023/04/26 14:19:25;;;;;;;2.9;1.1;;;;;;;;;;;;;-69
2023/04/26 14:22:03;;;;;;;;;;;;;;;19.25;56.93555;102059.7;;;;-68
2023/04/26 14:27:03;;;;;;;;;;;;;;;19;56.94824;102062.6;;;;-69
2023/04/26 14:32:03;;;;;;;;;;;;;;;18.82;56.0293;102060.3;;;;-69
2023/04/26 14:37:03;;;;;;;;;;;;;;;18.6;54.99121;102064.6;;;;-69
2023/04/26 14:42:03;;;;;;;;;;;;;;;18.31;54.54492;102063.1;;;;-69
2023/04/26 14:47:03;;;;;;;;;;;;;;;17.82;55.6875;102064.6;;;;-69
2023/04/26 14:49:29;;;;;;;3.2;1.3;;;;;;;;;;;;;-69
2023/04/26 14:52:03;;;;;;;;;;;;;;;17.56;55.99414;102067.4;;;;-68
2023/04/26 14:57:07;;;;;;;;;;;;;;;17.41;56.80078;102065;;;;-69
2023/04/26 15:02:03;;;;;;;;;;;;;;;17.2;55.9707;102066.8;;;;-70
2023/04/26 15:07:03;;;;;;;;;;;;;;;16.92;57.31445;102067.7;;;;-70
2023/04/26 15:12:03;;;;;;;;;;;;;;;16.64;59.36816;102069.2;;;;-69
2023/04/26 15:17:03;;;;;;;;;;;;;;;16.38;58.71191;102075.5;;;;-70
2023/04/26 15:19:32;;;;;;;3.2;1.4;;;;;;;;;;;;;-68
2023/04/26 15:22:03;;;;;;;;;;;;;;;16.16;57.26172;102062.2;;;;-69
2023/04/26 15:27:03;;;;;;;;;;;;;;;16.21;58.12598;102065.2;;;;-69
2023/04/26 15:32:06;;;;;;;;;;;;;;;16.47;58.22754;102064.1;;;;-70
2023/04/26 15:37:04;;;;;;;;;;;;;;;16.75;56.21875;102058.2;;;;-72
2023/04/26 15:42:03;;;;;;;;;;;;;;;17.07;56.05664;102062.9;;;;-70
2023/04/26 15:47:04;;;;;;;;;;;;;;;16.98;55.86426;102065.7;;;;-69
2023/04/26 15:49:35;;;;;;;3.7;1.4;;;;;;;;;;;;;-69
2023/04/26 15:52:03;;;;;;;;;;;;;;;16.71;56.84766;102064.4;;;;-69
2023/04/26 15:57:03;;;;;;;;;;;;;;;16.62;57.39941;102066.4;;;;-68
2023/04/26 16:02:04;;;;;;;;;;;;;;;16.69;58.04199;102064.3;;;;-69
2023/04/26 16:07:03;;;;;;;;;;;;;;;17.04;53.91309;102063.4;;;;-70
2023/04/26 16:12:04;;;;;;;;;;;;;;;17.23;54.00586;102066.6;;;;-70
2023/04/26 16:17:03;;;;;;;;;;;;;;;17.32;53.69824;102061.6;;;;-69
2023/04/26 16:19:37;;;;;;;3.4;1.4;;;;;;;;;;;;;-68
2023/04/26 16:22:03;;;;;;;;;;;;;;;17.18;53.04785;102069.5;;;;-69
2023/04/26 16:27:03;;;;;;;;;;;;;;;16.84;54.83984;102066.1;;;;-72
2023/04/26 16:32:03;;;;;;;;;;;;;;;16.69;53.89355;102062.9;;;;-72
2023/04/26 16:37:05;;;;;;;;;;;;;;;16.67;54.52344;102059.8;;;;-69
2023/04/26 16:42:06;;;;;;;;;;;;;;;16.58;55.03516;102060.3;;;;-69
2023/04/26 16:52:45;;;;;;;;;;;;;;;16.24;54.68652;102062.5;;;;-70
2023/04/26 16:57:45;;;;;;;;;;;;;;;16.14;56.27734;102062.9;;;;-69
2023/04/26 17:02:48;;;;;;;;;;;;;;;16;56.50879;102067;;;;-68
2023/04/26 17:07:45;;;;;;;;;;;;;;;15.83;56.63184;102073.5;;;;-70
2023/04/26 17:12:45;;;;;;;;;;;;;;;15.65;56.22461;102071.1;;;;-70
2023/04/26 17:17:45;;;;;;;;;;;;;;;15.46;56.84375;102079.2;;;;-71
2023/04/26 17:19:43;;;;;;;2.3;1.4;;;;;;;;;;;;;-69
2023/04/26 17:22:45;;;;;;;;;;;;;;;15.32;57.77246;102077.1;;;;-70
2023/04/26 17:27:45;;;;;;;;;;;;;;;15.16;58.19043;102075.5;;;;-70
2023/04/26 17:32:45;;;;;;;;;;;;;;;14.95;57.49902;102081.2;;;;-70
2023/04/26 17:37:48;;;;;;;;;;;;;;;14.77;57.66602;102082;;;;-69
2023/04/26 17:42:48;;;;;;;;;;;;;;;14.63;57.82813;102092.8;;;;-69
2023/04/26 17:47:45;;;;;;;;;;;;;;;14.49;56.55078;102092;;;;-70
2023/04/26 17:49:45;;;;;;;3.6;1.6;;;;;;;;;;;;;-69
2023/04/26 17:52:45;;;;;;;;;;;;;;;14.33;55.04492;102095.3;;;;-69
2023/04/26 17:57:45;;;;;;;;;;;;;;;14.14;56.18066;102099.5;;;;-69
2023/04/26 18:02:46;;;;;;;;;;;;;;;13.99;55.95898;102105.4;;;;-71
2023/04/26 18:07:46;;;;;;;;;;;;;;;13.83;56.35352;102110.7;;;;-70
2023/04/26 18:12:45;;;;;;;;;;;;;;;13.62;56.00098;102115.3;;;;-73
2023/04/26 18:17:45;;;;;;;;;;;;;;;13.44;56.61816;102124.3;;;;-70
2023/04/26 18:19:47;;;;;;;5;1.6;;;;;;;;;;;;;-69
2023/04/26 18:22:45;;;;;;;;;;;;;;;13.25;57.09863;102124.9;;;;-70
2023/04/26 18:27:46;;;;;;;;;;;;;;;13.06;57.61035;102123.9;;;;-70
2023/04/26 18:32:45;;;;;;;;;;;;;;;12.88;58.24707;102129.4;;;;-69
2023/04/26 18:37:45;;;;;;;;;;;;;;;12.67;58.58984;102130;;;;-70
2023/04/26 18:42:45;;;;;;;;;;;;;;;12.46;59.23242;102126.9;;;;-70
2023/04/26 18:47:46;;;;;;;;;;;;;;;12.25;59.37207;102130;;;;-69
2023/04/26 18:49:50;;;;;;;3.2;1.4;;;;;;;;;;;;;-68
2023/04/26 18:52:45;;;;;;;;;;;;;;;12.04;59.72266;102134;;;;-69
2023/04/26 18:57:48;;;;;;;;;;;;;;;11.81;59.82617;102132.3;;;;-70
2023/04/26 19:02:45;;;;;;;;;;;;;;;11.6;59.65137;102134.6;;;;-69
2023/04/26 19:07:45;;;;;;;;;;;;;;;11.35;59.48438;102133.1;;;;-68
2023/04/26 19:12:45;;;;;;;;;;;;;;;11.09;59.37012;102132.3;;;;-69
2023/04/26 19:17:45;;;;;;;;;;;;;;;10.87;59.45215;102142.9;;;;-69
2023/04/26 19:19:53;;;;;;;3;1.4;;;;;;;;;;;;;-70
2023/04/26 19:22:45;;;;;;;;;;;;;;;10.67;59.91504;102145.3;;;;-70
2023/04/26 19:27:45;;;;;;;;;;;;;;;10.42;60.10254;102151.6;;;;-70
2023/04/26 19:32:45;;;;;;;;;;;;;;;10.18;59.83594;102162.8;;;;-70
2023/04/26 19:37:45;;;;;;;;;;;;;;;9.91;59.40918;102165.7;;;;-68
2023/04/26 19:42:45;;;;;;;;;;;;;;;9.63;59.98145;102169.3;;;;-70
2023/04/26 19:47:47;;;;;;;;;;;;;;;9.4;60.07422;102165.4;;;;-68
2023/04/26 19:49:56;;;;;;;3.1;1.5;;;;;;;;;;;;;-69
2023/04/26 19:52:45;;;;;;;;;;;;;;;9.22;60.0918;102165.8;;;;-72
2023/04/26 19:57:46;;;;;;;;;;;;;;;9.01;60.8291;102165.1;;;;-69
2023/04/26 20:02:45;;;;;;;;;;;;;;;8.88;61.03223;102167.9;;;;-70
2023/04/26 20:07:46;;;;;;;;;;;;;;;8.71;60.51074;102170;;;;-70
2023/04/26 20:12:46;;;;;;;;;;;;;;;8.53;61.09375;102177.4;;;;-69
2023/04/26 20:17:45;;;;;;;;;;;;;;;8.4;60.85449;102179;;;;-70
2023/04/26 20:19:55;;;;;;;2.7;1.5;;;;;;;;;;;;;-68
2023/04/26 20:22:45;;;;;;;;;;;;;;;8.26;61.20117;102182;;;;-70
2023/04/26 20:27:45;;;;;;;;;;;;;;;8.09;61.41895;102182.2;;;;-68
2023/04/26 20:33:15;;;;;;;;;;;;;;;7.92;61.60449;102182.9;;;;-68
2023/04/26 20:38:15;;;;;;;;;;;;;;;7.79;61.71973;102180.2;;;;-69
2023/04/26 20:43:15;;;;;;;;;;;;;;;7.64;62.0625;102180.7;;;;-68
2023/04/26 20:48:14;;;;;;;;;;;;;;;7.51;62.08887;102181.7;;;;-69
2023/04/26 20:49:57;;;;;;;2.8;1.4;;;;;;;;;;;;;-69
2023/04/26 20:53:15;;;;;;;;;;;;;;;7.4;62.35938;102176.2;;;;-68
2023/04/26 20:58:15;;;;;;;;;;;;;;;7.28;62.19824;102184.9;;;;-68
2023/04/26 21:03:14;;;;;;;;;;;;;;;7.17;62.44727;102177.1;;;;-68
2023/04/26 21:08:15;;;;;;;;;;;;;;;7.07;62.49902;102172.7;;;;-68
2023/04/26 21:13:15;;;;;;;;;;;;;;;7;62.33398;102179;;;;-67
2023/04/26 21:18:14;;;;;;;;;;;;;;;6.86;62.68945;102173.4;;;;-70
2023/04/26 21:19:57;;;;;;;2.9;1.4;;;;;;;;;;;;;-69
2023/04/26 21:23:14;;;;;;;;;;;;;;;6.75;62.37598;102175.5;;;;-69
2023/04/26 21:28:15;;;;;;;;;;;;;;;6.66;62.5625;102176.2;;;;-69
2023/04/26 21:33:17;;;;;;;;;;;;;;;6.55;62.76563;102179.5;;;;-69
2023/04/26 21:38:14;;;;;;;;;;;;;;;6.48;62.9541;102178.6;;;;-69
2023/04/26 21:43:14;;;;;;;;;;;;;;;6.4;62.72266;102179.8;;;;-69
2023/04/26 21:48:15;;;;;;;;;;;;;;;6.31;63.0498;102185.1;;;;-68
2023/04/26 21:49:58;;;;;;;3;1.6;;;;;;;;;;;;;-69
2023/04/26 21:53:15;;;;;;;;;;;;;;;6.2;62.94727;102182.1;;;;-67
2023/04/26 21:58:15;;;;;;;;;;;;;;;6.1;62.97656;102184.2;;;;-68
2023/04/26 22:03:15;;;;;;;;;;;;;;;5.99;63.05957;102188.7;;;;-69
2023/04/26 22:08:15;;;;;;;;;;;;;;;5.93;63.40234;102194.6;;;;-69
2023/04/26 22:13:15;;;;;;;;;;;;;;;5.84;63.62109;102188.3;;;;-68
2023/04/26 22:18:15;;;;;;;;;;;;;;;5.72;63.37207;102189.1;;;;-68
2023/04/26 22:20:00;;;;;;;2.9;1.3;;;;;;;;;;;;;-70
2023/04/26 22:23:14;;;;;;;;;;;;;;;5.6;63.44238;102188.1;;;;-69
2023/04/26 22:28:15;;;;;;;;;;;;;;;5.49;63.23828;102185.6;;;;-68
2023/04/26 22:33:15;;;;;;;;;;;;;;;5.42;63.53613;102185.9;;;;-69
2023/04/26 22:38:14;;;;;;;;;;;;;;;5.34;63.5918;102191.6;;;;-69
2023/04/26 22:43:15;;;;;;;;;;;;;;;5.25;63.74121;102190.8;;;;-68
2023/04/26 22:48:16;;;;;;;;;;;;;;;5.15;63.95801;102194.8;;;;-69
2023/04/26 22:50:00;;;;;;;2.8;1.4;;;;;;;;;;;;;-68
2023/04/26 22:53:15;;;;;;;;;;;;;;;5.14;63.71387;102197.8;;;;-69
2023/04/26 22:58:16;;;;;;;;;;;;;;;5.01;63.75;102195.2;;;;-68
2023/04/26 23:03:15;;;;;;;;;;;;;;;4.93;63.71777;102198.9;;;;-69
2023/04/26 23:08:15;;;;;;;;;;;;;;;4.92;63.73828;102204.3;;;;-68
2023/04/26 23:13:15;;;;;;;;;;;;;;;4.8;64.14746;102212.9;;;;-68
2023/04/26 23:18:15;;;;;;;;;;;;;;;4.74;64.09375;102213.8;;;;-68
2023/04/26 23:20:06;;;;;;;3.8;1.6;;;;;;;;;;;;;-69
2023/04/26 23:23:14;;;;;;;;;;;;;;;4.65;64.47656;102219.1;;;;-69
2023/04/26 23:28:15;;;;;;;;;;;;;;;4.6;64.4248;102216.7;;;;-68
2023/04/26 23:33:15;;;;;;;;;;;;;;;4.55;64.13281;102224.9;;;;-68
2023/04/26 23:38:15;;;;;;;;;;;;;;;4.48;64.41797;102222.5;;;;-69
2023/04/26 23:43:15;;;;;;;;;;;;;;;4.4;64.21875;102226.3;;;;-68
2023/04/26 23:48:14;;;;;;;;;;;;;;;4.36;64.11328;102233.4;;;;-68
2023/04/26 23:50:02;;;;;;;3;1.7;;;;;;;;;;;;;-69
2023/04/26 23:53:15;;;;;;;;;;;;;;;4.23;64.75195;102245.1;;;;-68
2023/04/26 23:58:14;;;;;;;;;;;;;;;4.21;64.375;102239;;;;-68
